Time;durP1;ratioP1;P1;durP2;ratioP2;P2;SDS_P1;SDS_P2;PMS_P1;PMS_P2;Temp;Humidity;BMP_temperature;BMP_pressure;BME280_temperature;BME280_humidity;BME280_pressure;Samples;Min_cycle;Max_cycle;Signal;HPM_P1;HPM_P2
2022/01/19 00:01:25;;;;;;;33.00;16.63;;;;;;;11.66;40.88;101781.53;4925235;29;20040;-71
2022/01/19 00:03:52;;;;;;;31.73;16.97;;;;;;;11.87;40.46;101780.75;4936161;29;20070;-71
2022/01/19 00:06:20;;;;;;;31.40;16.07;;;;;;;11.94;40.23;101777.78;4938362;29;20051;-72
2022/01/19 00:08:47;;;;;;;32.03;16.00;;;;;;;11.91;40.56;101787.53;4939678;29;20063;-67
2022/01/19 00:11:14;;;;;;;28.43;15.53;;;;;;;11.77;40.65;101773.03;4920611;29;20060;-69
2022/01/19 00:13:42;;;;;;;23.23;13.10;;;;;;;11.70;40.86;101775.19;4935224;29;20028;-70
2022/01/19 00:16:10;;;;;;;26.90;15.63;;;;;;;11.52;40.99;101730.69;4939419;29;20039;-70
2022/01/19 00:18:37;;;;;;;20.40;10.30;;;;;;;11.63;40.76;101752.13;4927620;29;20043;-70
2022/01/19 00:21:04;;;;;;;7.73;6.10;;;;;;;11.56;40.79;101754.28;4928836;29;20040;-69
2022/01/19 00:23:31;;;;;;;26.43;14.23;;;;;;;11.51;40.88;101735.44;4918880;29;20602;-68
2022/01/19 00:25:58;;;;;;;25.37;13.57;;;;;;;11.69;40.49;101739.91;4912672;29;20106;-69
2022/01/19 00:28:25;;;;;;;21.80;12.60;;;;;;;11.81;40.33;101745.38;4914104;29;20051;-70
2022/01/19 00:30:53;;;;;;;26.13;13.20;;;;;;;11.93;40.12;101742.47;4912781;29;20135;-67
2022/01/19 00:33:20;;;;;;;21.37;11.70;;;;;;;11.83;40.09;101727.22;4914480;29;20059;-69
2022/01/19 00:35:51;;;;;;;37.20;15.83;;;;;;;11.82;40.47;101735.88;4911965;29;20139;-68
2022/01/19 00:38:18;;;;;;;26.77;14.67;;;;;;;11.70;40.57;101718.38;4907296;29;20546;-68
2022/01/19 00:40:46;;;;;;;22.67;13.37;;;;;;;11.68;40.75;101723.38;4915048;29;20083;-68
2022/01/19 00:43:14;;;;;;;27.40;15.10;;;;;;;11.48;41.15;101724.75;4926591;29;20060;-70
2022/01/19 00:45:42;;;;;;;29.13;15.27;;;;;;;11.37;41.31;101736.91;4909517;29;20104;-70
2022/01/19 00:48:24;;;;;;;32.90;16.67;;;;;;;11.12;41.36;101727.03;4906813;29;20063;-71
2022/01/19 00:50:54;;;;;;;28.77;15.67;;;;;;;11.46;41.59;101759.72;4909336;29;20552;-70
2022/01/19 00:53:21;;;;;;;29.87;17.20;;;;;;;11.44;41.57;101768.34;4909555;29;20059;-70
2022/01/19 00:55:48;;;;;;;30.13;17.87;;;;;;;11.51;41.36;101774.59;4916897;29;20847;-69
2022/01/19 00:58:15;;;;;;;35.23;18.27;;;;;;;11.39;41.94;101787.88;4911514;29;20135;-71
2022/01/19 01:00:43;;;;;;;28.73;14.83;;;;;;;11.24;42.32;101774.47;4912575;29;20591;-72
2022/01/19 01:03:10;;;;;;;33.20;18.13;;;;;;;11.08;42.88;101783.72;4908053;29;20059;-72
2022/01/19 01:05:38;;;;;;;23.87;11.83;;;;;;;10.76;43.49;101766.69;4911015;29;20112;-73
2022/01/19 01:08:05;;;;;;;35.67;15.33;;;;;;;10.64;44.18;101764.81;4905126;29;20052;-74
2022/01/19 01:10:41;;;;;;;33.47;18.47;;;;;;;10.39;44.42;101739.19;4908578;29;21889;-73
2022/01/19 01:16:02;;;;;;;21.40;11.10;;;;;;;10.42;44.93;101772.19;4911728;29;20162;-70
2022/01/19 01:18:32;;;;;;;34.40;16.50;;;;;;;10.41;44.89;101762.97;4929405;29;20437;-71
2022/01/19 01:21:00;;;;;;;23.10;12.63;;;;;;;10.18;45.17;101722.00;4909197;29;20044;-72
2022/01/19 01:23:30;;;;;;;21.63;10.13;;;;;;;10.27;45.31;101764.38;4914722;29;20083;-71
2022/01/19 01:25:58;;;;;;;17.13;8.10;;;;;;;10.13;45.68;101749.84;4913961;29;20135;-72
2022/01/19 01:28:25;;;;;;;20.77;10.73;;;;;;;10.10;45.72;101758.69;4910762;29;20148;-71
2022/01/19 01:30:52;;;;;;;21.63;11.23;;;;;;;9.76;46.47;101718.66;4910202;29;20595;-71
2022/01/19 01:33:19;;;;;;;31.33;13.73;;;;;;;9.87;46.73;101754.03;4914139;29;20091;-71
2022/01/19 01:35:47;;;;;;;26.27;13.67;;;;;;;9.84;46.76;101748.09;4911913;29;20138;-71
2022/01/19 01:38:14;;;;;;;19.87;10.50;;;;;;;9.76;46.90;101745.69;4913625;29;20087;-69
2022/01/19 01:41:01;;;;;;;15.53;6.60;;;;;;;9.72;47.15;101743.41;4915450;29;20048;-69
2022/01/19 01:43:28;;;;;;;11.40;6.10;;;;;;;9.61;47.35;101744.28;4911779;29;20135;-70
2022/01/19 01:46:02;;;;;;;18.97;6.97;;;;;;;9.34;47.87;101718.84;4912780;29;20052;-68
2022/01/19 01:48:29;;;;;;;12.77;5.87;;;;;;;9.23;48.34;101737.28;4912704;29;20533;-71
2022/01/19 01:53:42;;;;;;;8.83;5.80;;;;;;;9.18;48.49;101725.16;4913501;29;20055;-64
2022/01/19 01:56:16;;;;;;;8.70;6.47;;;;;;;8.98;49.34;101712.44;4900757;29;20460;-69
2022/01/19 01:58:46;;;;;;;12.50;7.27;;;;;;;8.70;49.54;101693.66;4947483;29;20455;-70
2022/01/19 02:01:13;;;;;;;12.40;8.23;;;;;;;8.82;49.73;101723.44;4915095;29;20163;-68
2022/01/19 02:03:43;;;;;;;14.30;7.70;;;;;;;8.80;49.75;101715.34;4943847;28;20068;-68
2022/01/19 02:09:04;;;;;;;12.73;6.53;;;;;;;8.67;49.34;101696.91;4916853;29;20052;-70
2022/01/19 02:23:02;;;;;;;12.97;7.53;;;;;;;9.58;47.30;101721.63;4918110;29;20130;-69
2022/01/19 02:25:35;;;;;;;22.60;10.30;;;;;;;9.43;47.63;101714.59;4910877;29;20143;-67
2022/01/19 02:41:33;;;;;;;20.83;10.80;;;;;;;9.45;47.44;101712.41;4918926;29;20052;-69
2022/01/19 02:44:00;;;;;;;14.70;9.97;;;;;;;9.31;47.66;101693.41;4915649;29;20060;-70
2022/01/19 02:46:52;;;;;;;19.90;10.77;;;;;;;9.12;47.74;101678.75;4914527;29;20048;-70
2022/01/19 02:49:19;;;;;;;12.88;7.18;;;;;;;9.01;48.25;101694.38;4915146;29;20435;-70
2022/01/19 02:51:49;;;;;;;12.73;7.17;;;;;;;9.04;48.94;101709.78;4913217;29;20140;-68
2022/01/19 02:54:21;;;;;;;13.67;7.60;;;;;;;8.93;48.80;101697.56;4915211;29;20135;-69
2022/01/19 02:56:53;;;;;;;14.43;7.50;;;;;;;8.87;48.77;101698.50;4916327;29;20079;-68
2022/01/19 02:59:28;;;;;;;16.20;8.00;;;;;;;8.57;48.63;101637.34;4915670;29;20075;-66
2022/01/19 03:10:12;;;;;;;15.00;7.30;;;;;;;8.78;49.06;101686.88;4913806;29;20159;-69
2022/01/19 03:12:39;;;;;;;14.03;6.73;;;;;;;8.63;48.96;101655.88;4915200;29;20139;-69
2022/01/19 03:15:10;;;;;;;15.07;6.73;;;;;;;8.79;49.01;101691.38;4916410;29;20135;-69
2022/01/19 03:17:37;;;;;;;5.10;3.67;;;;;;;8.78;49.10;101689.66;4931928;29;20136;-69
2022/01/19 03:20:07;;;;;;;13.87;8.97;;;;;;;8.53;48.98;101642.53;4913560;29;20143;-69
2022/01/19 03:22:42;;;;;;;15.63;8.97;;;;;;;8.92;48.71;101684.69;4917215;29;20392;-69
2022/01/19 03:25:12;;;;;;;23.73;11.67;;;;;;;8.96;48.41;101692.34;4914494;29;20131;-69
2022/01/19 03:27:40;;;;;;;20.30;10.57;;;;;;;9.02;48.35;101691.38;4912700;29;20108;-70
2022/01/19 03:30:08;;;;;;;14.03;7.93;;;;;;;9.02;48.21;101690.50;4915224;29;20119;-70
2022/01/19 03:32:35;;;;;;;16.83;8.63;;;;;;;8.85;48.35;101661.69;4911457;29;20135;-71
2022/01/19 03:35:02;;;;;;;12.20;7.93;;;;;;;9.01;48.09;101683.25;4914855;29;20136;-71
2022/01/19 03:37:29;;;;;;;15.87;9.43;;;;;;;9.04;48.12;101691.13;4914893;29;20060;-71
2022/01/19 03:39:56;;;;;;;16.37;8.83;;;;;;;9.04;48.11;101693.91;4913520;29;20139;-70
2022/01/19 03:42:24;;;;;;;21.43;11.07;;;;;;;9.01;48.06;101689.66;4911719;29;20056;-71
2022/01/19 03:44:51;;;;;;;17.87;10.47;;;;;;;9.12;47.72;101690.75;4914602;29;20154;-70
2022/01/19 03:47:19;;;;;;;14.27;8.53;;;;;;;9.08;47.93;101683.13;4912703;29;20139;-70
2022/01/19 03:49:46;;;;;;;12.23;5.93;;;;;;;8.81;48.01;101660.47;4912477;29;20084;-71
2022/01/19 03:52:13;;;;;;;14.97;7.83;;;;;;;8.85;48.40;101687.59;4913547;29;20131;-71
2022/01/19 03:54:42;;;;;;;8.10;5.00;;;;;;;8.63;48.64;101667.84;4917358;29;20131;-71
2022/01/19 03:57:10;;;;;;;8.30;5.03;;;;;;;8.50;49.50;101685.63;4916168;29;21752;-71
2022/01/19 03:59:38;;;;;;;9.07;3.80;;;;;;;8.06;50.25;101651.59;4912783;29;20147;-68
2022/01/19 04:02:05;;;;;;;14.97;8.03;;;;;;;8.28;49.98;101676.94;4912879;29;20496;-68
2022/01/19 04:07:26;;;;;;;13.17;6.57;;;;;;;8.20;50.48;101687.56;4915860;29;20056;-69
2022/01/19 04:09:52;;;;;;;14.77;8.13;;;;;;;8.08;50.44;101662.50;4912923;29;20143;-70
2022/01/19 04:12:31;;;;;;;16.27;8.83;;;;;;;8.35;49.93;101684.34;4911786;29;20063;-71
2022/01/19 04:14:58;;;;;;;8.83;4.53;;;;;;;8.15;49.81;101652.09;4916070;29;20470;-69
2022/01/19 04:17:25;;;;;;;21.10;10.83;;;;;;;8.42;49.81;101674.00;4913621;29;20080;-70
2022/01/19 04:19:52;;;;;;;15.03;5.43;;;;;;;8.26;49.60;101654.06;4911861;29;20120;-69
2022/01/19 04:22:20;;;;;;;26.80;11.40;;;;;;;8.32;50.00;101675.38;4915363;29;20470;-68
2022/01/19 04:24:48;;;;;;;20.30;9.73;;;;;;;8.24;50.29;101672.97;4911893;29;20567;-70
2022/01/19 04:29:50;;;;;;;16.03;10.13;;;;;;;8.36;49.77;101681.31;4910159;29;20075;-71
2022/01/19 04:32:22;;;;;;;13.57;7.53;;;;;;;8.34;49.54;101674.28;4910911;29;20044;-70
2022/01/19 04:34:50;;;;;;;13.43;7.70;;;;;;;8.40;49.48;101681.72;4912641;29;20127;-69
2022/01/19 04:45:54;;;;;;;9.30;5.10;;;;;;;8.20;49.56;101682.84;4912727;29;20559;-67
2022/01/19 05:04:46;;;;;;;14.43;6.70;;;;;;;8.69;47.77;101691.94;4913360;29;20439;-66
2022/01/19 05:07:24;;;;;;;5.43;3.23;;;;;;;8.58;48.02;101684.44;4913151;29;20056;-68
2022/01/19 05:15:07;;;;;;;20.13;6.37;;;;;;;8.62;47.40;101640.25;4913966;29;20480;-68
2022/01/19 05:17:37;;;;;;;14.73;7.63;;;;;;;8.71;47.30;101650.78;4911119;29;20080;-68
2022/01/19 05:20:06;;;;;;;17.50;9.27;;;;;;;8.70;47.27;101649.09;4911342;29;20147;-68
2022/01/19 05:22:33;;;;;;;13.83;8.30;;;;;;;8.84;47.34;101662.78;4915453;29;20134;-67
2022/01/19 05:25:01;;;;;;;17.20;8.87;;;;;;;8.64;47.55;101650.03;4911705;29;20083;-68
2022/01/19 05:27:27;;;;;;;19.67;9.20;;;;;;;8.83;47.42;101681.44;4912473;29;20131;-68
2022/01/19 05:29:54;;;;;;;18.77;10.13;;;;;;;8.89;47.12;101685.16;4907177;29;20134;-69
2022/01/19 05:32:22;;;;;;;18.20;9.77;;;;;;;8.69;46.87;101636.25;4911780;29;20048;-68
2022/01/19 05:34:49;;;;;;;17.07;8.93;;;;;;;8.99;46.84;101661.22;4913012;29;20084;-69
2022/01/19 05:37:16;;;;;;;16.97;9.70;;;;;;;9.20;46.38;101682.03;4905041;29;20131;-71
2022/01/19 05:39:43;;;;;;;17.97;10.37;;;;;;;9.25;46.26;101678.50;4912475;29;20564;-70
2022/01/19 05:42:14;;;;;;;17.73;9.23;;;;;;;8.99;46.13;101624.13;4913293;29;20083;-69
2022/01/19 05:44:46;;;;;;;14.23;9.03;;;;;;;9.04;46.24;101660.47;4912428;29;20170;-69
2022/01/19 05:47:17;;;;;;;14.93;6.93;;;;;;;8.90;46.57;101668.22;4909648;29;20052;-69
2022/01/19 05:49:44;;;;;;;10.77;3.80;;;;;;;8.57;46.79;101637.34;4911728;29;20134;-70
2022/01/19 05:52:11;;;;;;;8.07;4.93;;;;;;;8.64;47.10;101672.31;4912426;29;20151;-69
2022/01/19 05:54:38;;;;;;;13.83;5.03;;;;;;;8.49;47.21;101666.38;4914607;29;20094;-69
2022/01/19 05:57:05;;;;;;;10.47;5.40;;;;;;;8.47;47.29;101671.31;4915003;29;20111;-68
2022/01/19 05:59:32;;;;;;;11.30;7.10;;;;;;;7.91;47.59;101594.72;4911750;29;20401;-69
2022/01/19 06:01:59;;;;;;;13.93;5.17;;;;;;;8.25;47.01;101655.16;4912374;29;20083;-69
2022/01/19 06:04:26;;;;;;;7.67;5.27;;;;;;;8.40;47.58;101670.59;4912471;29;20099;-68
2022/01/19 06:06:56;;;;;;;5.67;3.30;;;;;;;8.21;47.41;101658.66;4915330;29;20135;-68
2022/01/19 06:12:06;;;;;;;12.00;6.97;;;;;;;8.17;47.93;101661.09;4912644;29;20139;-72
2022/01/19 06:14:36;;;;;;;7.57;3.87;;;;;;;8.07;47.92;101646.91;4911840;29;20083;-72
2022/01/19 06:17:05;;;;;;;5.00;2.38;;;;;;;8.14;48.28;101677.41;4901267;29;20151;-72
2022/01/19 06:19:32;;;;;;;11.07;6.10;;;;;;;8.15;48.22;101684.66;4911543;29;20127;-69
2022/01/19 06:21:59;;;;;;;5.23;4.30;;;;;;;8.17;48.10;101679.69;4908774;29;20135;-70
2022/01/19 06:24:27;;;;;;;9.70;5.90;;;;;;;8.18;48.14;101686.97;4911611;29;20135;-73
2022/01/19 06:26:54;;;;;;;12.53;6.73;;;;;;;8.14;48.19;101677.41;4912302;29;20091;-74
2022/01/19 06:29:22;;;;;;;9.23;3.77;;;;;;;8.06;48.45;101684.97;4908660;29;20140;-74
2022/01/19 06:31:49;;;;;;;3.83;3.07;;;;;;;8.00;48.37;101673.94;4906386;29;20088;-63
2022/01/19 06:34:17;;;;;;;3.80;3.03;;;;;;;8.07;48.26;101685.84;4909386;29;20127;-62
2022/01/19 06:36:43;;;;;;;3.73;3.27;;;;;;;8.22;47.83;101691.81;4913135;29;20131;-63
2022/01/19 06:39:10;;;;;;;8.90;4.33;;;;;;;8.08;47.79;101659.72;4909277;29;20133;-63
2022/01/19 06:41:37;;;;;;;5.47;3.40;;;;;;;8.34;47.64;101693.78;4914396;29;20127;-64
2022/01/19 06:44:05;;;;;;;3.93;3.30;;;;;;;8.40;47.37;101681.72;4911669;29;20579;-62
2022/01/19 06:46:32;;;;;;;8.40;3.17;;;;;;;8.52;47.13;101690.97;4906651;29;20127;-62
2022/01/19 06:48:59;;;;;;;8.13;4.30;;;;;;;8.50;46.94;101693.97;4907831;29;20531;-62
2022/01/19 06:51:26;;;;;;;4.80;3.00;;;;;;;8.54;46.73;101699.91;4911657;29;20123;-62
2022/01/19 06:53:53;;;;;;;3.60;2.83;;;;;;;8.55;46.65;101704.41;4909091;29;20143;-62
2022/01/19 06:56:20;;;;;;;6.10;3.60;;;;;;;8.56;46.68;101703.31;4904303;29;20143;-63
2022/01/19 06:58:47;;;;;;;10.57;5.90;;;;;;;8.61;46.48;101699.78;4910085;29;20131;-63
2022/01/19 07:01:15;;;;;;;13.07;5.87;;;;;;;8.73;46.47;101704.31;4906127;29;20586;-62
2022/01/19 07:03:42;;;;;;;8.77;5.50;;;;;;;8.77;46.12;101711.09;4913314;29;20181;-63
2022/01/19 07:06:11;;;;;;;7.10;4.00;;;;;;;8.55;46.11;101668.22;4906405;29;20171;-63
2022/01/19 07:08:39;;;;;;;11.93;5.87;;;;;;;8.72;46.36;101701.78;4906538;29;20064;-63
2022/01/19 07:11:07;;;;;;;12.00;6.30;;;;;;;8.86;46.01;101705.19;4912795;29;20052;-63
2022/01/19 07:13:34;;;;;;;6.23;3.97;;;;;;;8.77;46.17;101699.94;4912113;29;20052;-63
2022/01/19 07:16:00;;;;;;;11.63;6.23;;;;;;;8.54;45.96;101666.50;4907012;29;20138;-63
2022/01/19 07:18:27;;;;;;;14.07;7.30;;;;;;;8.79;46.14;101705.28;4916850;29;20056;-63
2022/01/19 07:20:54;;;;;;;4.57;2.90;;;;;;;8.68;46.51;101712.53;4908422;29;20138;-64
2022/01/19 07:23:21;;;;;;;9.20;5.90;;;;;;;8.54;46.66;101722.19;4913759;29;20079;-64
2022/01/19 07:25:48;;;;;;;12.93;6.17;;;;;;;8.54;46.63;101711.88;4916241;29;20159;-64
2022/01/19 07:28:15;;;;;;;14.07;5.83;;;;;;;8.56;46.62;101720.03;4915411;29;20479;-63
2022/01/19 07:30:42;;;;;;;14.33;7.20;;;;;;;8.48;46.79;101704.50;4915362;29;20143;-64
2022/01/19 07:33:09;;;;;;;11.63;6.43;;;;;;;8.51;46.78;101712.38;4913475;29;20040;-64
2022/01/19 07:35:36;;;;;;;15.50;6.57;;;;;;;8.09;46.96;101661.41;4915337;29;20135;-64
2022/01/19 07:38:03;;;;;;;6.03;3.27;;;;;;;8.49;46.84;101731.25;4915804;29;20048;-65
2022/01/19 07:40:34;;;;;;;10.63;6.03;;;;;;;8.39;46.87;101724.56;4914621;29;20055;-63
2022/01/19 07:43:01;;;;;;;18.00;6.33;;;;;;;8.51;46.67;101728.22;4915894;29;20136;-64
2022/01/19 07:45:28;;;;;;;11.37;5.63;;;;;;;8.54;46.80;101738.88;4914562;29;20075;-66
2022/01/19 07:47:55;;;;;;;10.47;6.23;;;;;;;8.57;46.72;101751.50;4915765;29;20143;-64
2022/01/19 07:50:22;;;;;;;13.23;5.37;;;;;;;8.55;46.75;101751.75;4917926;29;20127;-65
2022/01/19 07:52:49;;;;;;;8.60;5.23;;;;;;;8.41;46.56;101722.38;4913654;29;20102;-64
2022/01/19 07:55:15;;;;;;;10.27;5.20;;;;;;;8.56;46.74;101747.84;4911952;29;20136;-66
2022/01/19 07:57:47;;;;;;;8.97;5.17;;;;;;;8.45;46.33;101734.75;4909963;29;20135;-64
2022/01/19 08:00:16;;;;;;;6.57;3.43;;;;;;;8.37;46.84;101721.13;4907458;29;20055;-64
2022/01/19 08:02:44;;;;;;;7.43;4.40;;;;;;;8.49;46.65;101749.91;4907914;29;20107;-64
2022/01/19 08:05:11;;;;;;;9.83;4.50;;;;;;;8.47;46.55;101744.56;4907034;29;20626;-63
2022/01/19 08:07:40;;;;;;;7.40;3.57;;;;;;;8.56;46.58;101747.00;4917849;29;20058;-64
2022/01/19 08:10:10;;;;;;;5.73;4.73;;;;;;;8.62;46.46;101751.63;4917642;29;20153;-62
2022/01/19 08:12:37;;;;;;;2.80;2.50;;;;;;;8.14;46.54;101678.25;4914180;29;20496;-62
2022/01/19 08:15:05;;;;;;;7.53;5.43;;;;;;;8.64;46.51;101757.78;4918170;29;20083;-62
2022/01/19 08:17:33;;;;;;;12.13;6.50;;;;;;;8.86;46.27;101758.09;4918674;29;20048;-62
2022/01/19 08:19:59;;;;;;;12.10;6.03;;;;;;;9.11;45.90;101761.50;4934649;29;20036;-62
2022/01/19 08:22:26;;;;;;;11.90;6.80;;;;;;;9.47;45.60;101770.75;4937678;29;20043;-62
2022/01/19 08:24:53;;;;;;;12.20;6.37;;;;;;;9.73;45.16;101753.44;4933187;29;20052;-61
2022/01/19 08:27:20;;;;;;;14.20;6.03;;;;;;;10.17;44.87;101769.72;4935766;29;20056;-62
2022/01/19 08:29:47;;;;;;;7.37;4.60;;;;;;;10.34;44.21;101753.91;4933463;29;20115;-62
2022/01/19 08:32:14;;;;;;;9.83;5.00;;;;;;;10.37;43.80;101758.16;4920065;29;20052;-63
2022/01/19 08:34:58;;;;;;;13.63;7.13;;;;;;;10.57;43.50;101702.66;4932051;29;20044;-61
2022/01/19 08:37:25;;;;;;;18.90;9.90;;;;;;;11.37;42.94;101746.16;4919347;29;20474;-63
2022/01/19 08:39:52;;;;;;;11.67;6.30;;;;;;;11.34;42.15;101693.53;4917708;29;20151;-64
2022/01/19 08:42:19;;;;;;;13.60;6.63;;;;;;;12.39;41.65;101774.66;4916496;29;20056;-61
2022/01/19 08:44:51;;;;;;;13.97;6.83;;;;;;;12.91;41.35;101774.06;4898629;29;20048;-64
2022/01/19 08:47:19;;;;;;;10.80;5.63;;;;;;;13.14;40.11;101781.28;4898533;29;20092;-64
2022/01/19 08:49:54;;;;;;;12.97;6.97;;;;;;;13.25;39.82;101728.94;4898369;29;20056;-63
2022/01/19 08:52:21;;;;;;;16.30;8.83;;;;;;;14.02;39.27;101775.16;4898554;29;20052;-64
2022/01/19 08:54:48;;;;;;;15.63;7.47;;;;;;;14.48;39.11;101775.28;4912613;29;20140;-64
2022/01/19 08:57:16;;;;;;;10.93;6.30;;;;;;;14.91;38.64;101757.13;4915907;29;20079;-64
2022/01/19 08:59:43;;;;;;;10.33;5.33;;;;;;;14.82;37.93;101724.22;4910968;29;20087;-64
2022/01/19 09:02:10;;;;;;;10.53;6.13;;;;;;;15.34;37.43;101785.81;4916188;29;20079;-64
2022/01/19 09:04:37;;;;;;;11.23;7.23;;;;;;;15.84;37.27;101789.69;4913186;29;20139;-64
2022/01/19 09:07:05;;;;;;;10.20;6.23;;;;;;;16.26;36.88;101791.22;4917050;29;20052;-63
2022/01/19 09:09:32;;;;;;;12.40;6.10;;;;;;;16.80;36.20;101804.50;4916877;29;20139;-64
2022/01/19 09:11:58;;;;;;;10.33;6.33;;;;;;;17.21;35.89;101806.19;4916670;29;20158;-64
2022/01/19 09:14:26;;;;;;;11.30;7.30;;;;;;;17.35;35.50;101764.00;4912412;29;20058;-64
2022/01/19 09:16:52;;;;;;;12.63;6.85;;;;;;;17.75;34.40;101805.13;4916007;29;20098;-64
2022/01/19 09:19:20;;;;;;;9.70;6.47;;;;;;;17.81;34.38;101808.75;4917095;29;20082;-63
2022/01/19 09:21:48;;;;;;;12.45;7.55;;;;;;;18.17;34.33;101820.50;4916153;29;20139;-63
2022/01/19 09:24:16;;;;;;;16.65;9.35;;;;;;;18.66;34.25;101817.28;4916230;29;20142;-64
2022/01/19 09:26:44;;;;;;;15.60;9.90;;;;;;;19.10;33.51;101815.25;4916797;29;20048;-64
2022/01/19 09:29:11;;;;;;;15.80;10.18;;;;;;;19.56;33.44;101823.00;4910545;29;20130;-63
2022/01/19 09:31:39;;;;;;;16.45;9.27;;;;;;;19.96;33.03;101827.06;4913548;29;20079;-63
2022/01/19 09:34:11;;;;;;;12.68;7.50;;;;;;;20.28;32.06;101826.16;4912420;29;20083;-64
2022/01/19 09:36:44;;;;;;;13.80;7.55;;;;;;;20.50;31.74;101824.56;4916345;29;20056;-64
2022/01/19 09:39:16;;;;;;;12.85;7.60;;;;;;;20.70;31.30;101766.53;4915315;29;20098;-64
2022/01/19 09:41:43;;;;;;;11.60;6.75;;;;;;;21.33;30.09;101836.53;4912483;29;20139;-65
2022/01/19 09:44:11;;;;;;;10.63;7.35;;;;;;;21.66;29.81;101834.31;4911661;29;20067;-63
2022/01/19 09:46:38;;;;;;;12.18;7.35;;;;;;;21.58;29.82;101766.06;4913228;29;20135;-65
2022/01/19 09:49:05;;;;;;;12.50;7.43;;;;;;;22.47;29.19;101845.44;4915393;29;20056;-64
2022/01/19 09:51:32;;;;;;;10.65;6.40;;;;;;;22.66;29.00;101852.84;4910836;29;20052;-64
2022/01/19 09:53:59;;;;;;;10.85;7.53;;;;;;;22.81;28.70;101852.38;4907082;29;20059;-64
2022/01/19 09:56:26;;;;;;;9.60;6.80;;;;;;;22.86;27.97;101849.38;4900487;29;20412;-64
2022/01/19 09:58:53;;;;;;;13.90;6.97;;;;;;;23.11;28.10;101847.78;4913839;29;20048;-64
2022/01/19 10:01:22;;;;;;;12.25;7.65;;;;;;;23.12;27.84;101854.31;4916671;29;20134;-64
2022/01/19 10:03:50;;;;;;;10.02;7.35;;;;;;;23.03;28.01;101833.50;4916650;29;20186;-63
2022/01/19 10:06:25;;;;;;;10.57;7.20;;;;;;;23.36;27.78;101843.22;4916597;29;20443;-65
2022/01/19 10:08:54;;;;;;;11.68;7.28;;;;;;;23.30;26.61;101838.88;4911933;29;20135;-64
2022/01/19 10:16:58;;;;;;;12.50;8.15;;;;;;;22.77;26.64;101848.53;4914182;29;20155;-64
2022/01/19 10:17:10;;;;;;;13.85;9.13;;;;;;;22.70;26.62;101836.75;4916150;29;20052;-64
2022/01/19 10:19:38;;;;;;;18.55;10.07;;;;;;;22.96;26.89;101850.25;4917926;29;20169;-64
2022/01/19 10:22:13;;;;;;;16.58;10.63;;;;;;;23.00;26.31;101825.63;4915778;29;20076;-64
2022/01/19 10:24:48;;;;;;;18.23;11.77;;;;;;;23.46;26.36;101853.44;4895908;29;20048;-64
2022/01/19 10:27:26;;;;;;;20.60;11.50;;;;;;;23.41;25.55;101845.88;4908803;29;20591;-64
2022/01/19 10:30:16;;;;;;;16.90;10.80;;;;;;;23.31;25.89;101829.13;4925106;29;20144;-64
2022/01/19 10:32:52;;;;;;;18.20;12.05;;;;;;;23.61;26.00;101841.50;4916589;29;20141;-64
2022/01/19 10:35:21;;;;;;;18.20;11.57;;;;;;;23.55;24.71;101845.72;4919290;29;20083;-64
2022/01/19 10:38:16;;;;;;;16.15;10.35;;;;;;;23.61;25.60;101838.66;4913864;29;20080;-64
2022/01/19 10:40:44;;;;;;;14.20;9.73;;;;;;;24.05;24.78;101830.00;4911115;29;20127;-64
2022/01/19 10:43:29;;;;;;;16.77;10.57;;;;;;;24.41;25.03;101837.25;4909580;29;20091;-64
2022/01/19 10:45:59;;;;;;;13.43;9.75;;;;;;;24.78;24.30;101839.22;4912487;29;20134;-64
2022/01/19 10:48:33;;;;;;;;;;;;;;;24.63;26.54;101839.84;4916484;29;20056;-65
2022/01/19 10:51:06;;;;;;;15.82;9.50;;;;;;;25.17;24.75;101842.84;4912177;29;20050;-64
2022/01/19 10:53:34;;;;;;;13.98;9.05;;;;;;;25.46;24.43;101843.94;4914998;29;20092;-65
2022/01/19 10:56:05;;;;;;;21.65;9.55;;;;;;;25.13;23.88;101841.00;4915026;29;20083;-63
2022/01/19 10:58:51;;;;;;;14.68;8.30;;;;;;;24.67;23.24;101823.69;4910993;29;20056;-64
2022/01/19 11:01:34;;;;;;;13.40;8.70;;;;;;;24.38;23.66;101797.97;4912033;29;20139;-64
2022/01/19 11:04:19;;;;;;;10.82;7.10;;;;;;;24.42;23.85;101827.53;4916763;29;20456;-63
2022/01/19 11:06:48;;;;;;;11.57;8.15;;;;;;;24.71;23.77;101823.81;4908980;29;20064;-64
2022/01/19 11:09:15;;;;;;;9.93;6.35;;;;;;;24.65;23.58;101825.19;4912950;29;20062;-63
2022/01/19 11:11:45;;;;;;;12.23;6.78;;;;;;;24.29;23.89;101813.13;4913263;29;20088;-64
2022/01/19 11:14:18;;;;;;;10.32;6.88;;;;;;;24.42;23.90;101799.81;4908656;29;20051;-64
2022/01/19 11:16:45;;;;;;;9.40;6.35;;;;;;;24.32;23.57;101731.66;4914829;29;20072;-64
2022/01/19 11:19:14;;;;;;;13.05;7.13;;;;;;;24.10;23.25;101789.88;4918453;29;20048;-64
2022/01/19 11:22:06;;;;;;;10.73;7.78;;;;;;;24.21;23.84;101791.16;4915948;29;20056;-64
2022/01/19 11:24:45;;;;;;;12.07;7.60;;;;;;;24.99;23.18;101795.53;4915992;29;20128;-64
2022/01/19 11:27:13;;;;;;;;;;;;;;;24.99;24.09;101790.69;4913358;29;20120;-63
2022/01/19 11:29:40;;;;;;;6.95;4.82;;;;;;;25.49;23.40;101794.59;4912023;29;19958;-63
2022/01/19 11:32:19;;;;;;;11.35;7.53;;;;;;;25.03;22.60;101780.22;4910210;29;20055;-64
2022/01/19 11:34:53;;;;;;;16.80;7.28;;;;;;;24.87;22.38;101778.34;4911432;29;20139;-64
2022/01/19 11:37:41;;;;;;;9.73;6.00;;;;;;;23.83;22.25;101740.66;4913486;29;20126;-64
2022/01/19 11:40:18;;;;;;;12.68;8.23;;;;;;;23.48;22.73;101778.97;4917229;29;20135;-63
2022/01/19 11:42:45;;;;;;;11.65;6.90;;;;;;;23.83;22.56;101780.59;4914518;29;20131;-65
2022/01/19 11:45:35;;;;;;;11.45;7.38;;;;;;;24.19;22.58;101779.25;4913368;29;20086;-64
2022/01/19 11:48:32;;;;;;;9.73;8.05;;;;;;;25.33;21.89;101773.56;4918174;29;20500;-64
2022/01/19 11:51:21;;;;;;;11.57;7.72;;;;;;;26.32;21.62;101778.28;4916102;29;20099;-64
2022/01/19 11:54:08;;;;;;;14.85;8.77;;;;;;;27.24;21.22;101768.09;4914310;29;20107;-64
2022/01/19 11:57:02;;;;;;;18.30;9.77;;;;;;;27.95;20.82;101781.59;4912748;29;20080;-64
2022/01/19 12:00:05;;;;;;;12.63;8.18;;;;;;;27.84;20.16;101758.34;4914440;29;20090;-64
2022/01/19 12:02:41;;;;;;;11.38;7.82;;;;;;;28.46;20.07;101761.56;4909780;29;20084;-64
2022/01/19 12:05:40;;;;;;;12.13;8.25;;;;;;;28.97;19.22;101764.34;4914645;29;20051;-63
2022/01/19 12:08:31;;;;;;;15.50;9.00;;;;;;;28.96;19.40;101744.63;4913142;29;20071;-64
2022/01/19 12:11:18;;;;;;;11.00;8.10;;;;;;;29.23;19.50;101743.59;4914705;29;20143;-64
2022/01/19 12:14:00;;;;;;;18.33;9.25;;;;;;;29.70;18.43;101744.50;4911200;29;20320;-64
2022/01/19 12:19:10;;;;;;;11.68;8.48;;;;;;;30.26;18.30;101764.03;4911246;29;20052;-64
2022/01/19 12:21:45;;;;;;;10.25;7.82;;;;;;;30.34;17.59;101721.72;4909020;29;20056;-64
2022/01/19 12:24:38;;;;;;;13.73;8.55;;;;;;;30.99;17.83;101737.91;4907544;29;20044;-64
2022/01/19 12:27:23;;;;;;;14.60;9.35;;;;;;;31.39;17.75;101746.69;4910604;29;20111;-65
2022/01/19 12:30:02;;;;;;;11.80;7.90;;;;;;;31.57;17.15;101757.59;4914670;29;20104;-63
2022/01/19 12:32:35;;;;;;;13.80;7.82;;;;;;;31.49;17.24;101735.63;4898625;29;20341;-64
2022/01/19 12:35:10;;;;;;;13.45;8.57;;;;;;;31.77;16.13;101741.69;4914519;29;20131;-63
2022/01/19 12:37:41;;;;;;;15.05;8.48;;;;;;;31.75;16.33;101735.47;4909759;29;20063;-63
2022/01/19 12:40:17;;;;;;;15.02;8.50;;;;;;;32.15;16.08;101736.69;4916644;29;20080;-64
2022/01/19 12:42:47;;;;;;;12.52;8.02;;;;;;;32.54;16.05;101734.09;4917608;29;20504;-64
2022/01/19 12:45:48;;;;;;;15.05;9.07;;;;;;;32.96;16.09;101731.88;4912368;29;20076;-64
2022/01/19 12:48:34;;;;;;;15.30;9.20;;;;;;;32.61;16.37;101736.19;4907690;29;20056;-65
2022/01/19 12:51:01;;;;;;;10.57;8.35;;;;;;;32.26;15.74;101740.47;4917049;29;20559;-64
2022/01/19 12:53:28;;;;;;;12.18;8.48;;;;;;;32.44;16.02;101734.03;4914190;29;20499;-66
2022/01/19 12:56:05;;;;;;;10.68;8.27;;;;;;;32.45;15.51;101724.13;4945291;29;20083;-64
2022/01/19 12:58:35;;;;;;;10.35;8.63;;;;;;;32.50;15.99;101721.69;4916236;29;20060;-64
2022/01/19 13:01:10;;;;;;;11.45;8.13;;;;;;;32.47;15.49;101718.78;4913556;29;20048;-64
2022/01/19 13:03:40;;;;;;;10.80;7.97;;;;;;;32.75;15.69;101709.41;4915400;29;20084;-64